createdAt,value
2023-01-02T00:02:10.298Z,10.95
2023-01-02T00:04:37.234Z,12.70
2023-01-02T00:07:04.048Z,8.10
2023-01-02T00:09:31.424Z,9.18
2023-01-02T00:11:58.309Z,10.23
2023-01-02T00:14:25.231Z,13.40
2023-01-02T00:16:52.416Z,8.18
2023-01-02T00:19:19.675Z,8.65
2023-01-02T00:21:48.691Z,10.23
2023-01-02T00:24:18.890Z,6.90
2023-01-02T00:32:07.193Z,5.75
2023-01-02T00:34:34.121Z,5.40
2023-01-02T00:37:00.894Z,7.80
2023-01-02T00:39:29.577Z,7.82
2023-01-02T00:41:56.452Z,7.75
2023-01-02T00:44:23.386Z,7.82
2023-01-02T00:46:50.358Z,9.10
2023-01-02T00:49:17.268Z,9.60
2023-01-02T00:51:44.157Z,7.53
2023-01-02T00:54:11.015Z,6.85
2023-01-02T00:56:37.932Z,6.53
2023-01-02T00:59:05.166Z,7.65
2023-01-02T01:01:32.515Z,6.07
2023-01-02T01:04:01.081Z,6.13
2023-01-02T01:06:27.938Z,6.70
2023-01-02T01:08:55.131Z,5.85
2023-01-02T01:11:21.951Z,5.38
2023-01-02T01:13:48.738Z,8.98
2023-01-02T01:16:18.157Z,15.23
2023-01-02T01:18:45.424Z,7.35
2023-01-02T01:21:15.232Z,6.72
2023-01-02T01:23:42.195Z,7.47
2023-01-02T01:26:12.259Z,9.07
2023-01-02T01:28:39.970Z,5.53
2023-01-02T01:31:12.826Z,10.57
2023-01-02T01:33:41.608Z,11.60
2023-01-02T01:36:15.190Z,11.48
2023-01-02T01:38:42.684Z,19.38
2023-01-02T01:41:12.807Z,13.32
2023-01-02T01:43:46.321Z,21.48
2023-01-02T01:46:47.695Z,10.75
2023-01-02T01:49:32.916Z,8.50
2023-01-02T01:52:04.403Z,21.98
2023-01-02T01:54:39.211Z,22.77
2023-01-02T01:57:20.863Z,24.52
2023-01-02T01:59:48.612Z,23.20
2023-01-02T02:02:15.967Z,19.00
2023-01-02T02:04:45.346Z,14.43
2023-01-02T02:07:13.160Z,15.30
2023-01-02T02:09:52.200Z,13.90
2023-01-02T02:12:24.313Z,13.07
2023-01-02T02:14:54.586Z,12.00
2023-01-02T02:18:03.256Z,11.05
2023-01-02T02:20:44.664Z,12.45
2023-01-02T02:23:30.463Z,15.02
2023-01-02T02:26:35.319Z,12.23
2023-01-02T02:29:41.883Z,15.30
2023-01-02T02:32:28.648Z,14.48
2023-01-02T02:35:14.101Z,15.07
2023-01-02T02:38:03.296Z,16.58
2023-01-02T02:40:36.300Z,14.60
2023-01-02T02:43:10.968Z,15.00
2023-01-02T02:45:40.732Z,14.25
2023-01-02T02:48:34.443Z,11.05
2023-01-02T02:51:09.762Z,15.75
2023-01-02T02:53:43.528Z,14.55
2023-01-02T02:56:12.275Z,15.27
2023-01-02T02:58:41.488Z,15.02
2023-01-02T03:01:14.275Z,13.55
2023-01-02T03:03:41.316Z,14.13
2023-01-02T03:06:17.222Z,14.10
2023-01-02T03:09:29.187Z,11.73
2023-01-02T03:12:33.681Z,14.75
2023-01-02T03:15:24.962Z,12.95
2023-01-02T03:17:55.089Z,15.18
2023-01-02T03:20:27.207Z,12.68
2023-01-02T03:23:00.884Z,10.48
2023-01-02T03:25:28.800Z,11.65
2023-01-02T03:27:58.326Z,12.63
2023-01-02T03:30:25.718Z,11.43
2023-01-02T03:32:58.214Z,11.18
2023-01-02T03:35:44.435Z,12.15
2023-01-02T03:38:28.893Z,11.48
2023-01-02T03:41:08.030Z,11.52
2023-01-02T03:43:37.049Z,11.38
2023-01-02T03:46:24.870Z,10.88
2023-01-02T03:49:09.280Z,11.32
2023-01-02T03:51:36.449Z,11.85
2023-01-02T03:54:04.528Z,12.60
2023-01-02T03:56:52.959Z,10.60
2023-01-02T03:59:57.434Z,10.70
2023-01-02T04:02:27.570Z,13.55
2023-01-02T04:04:58.485Z,12.38
2023-01-02T04:07:39.129Z,12.68
2023-01-02T04:10:08.292Z,10.60
2023-01-02T04:12:39.443Z,11.45
2023-01-02T04:15:09.448Z,9.35
2023-01-02T04:17:42.871Z,9.48
2023-01-02T04:20:16.597Z,7.30
2023-01-02T04:22:54.320Z,7.63
2023-01-02T04:25:24.776Z,9.13
2023-01-02T04:28:11.153Z,8.57
2023-01-02T04:30:45.118Z,10.10
2023-01-02T04:33:14.522Z,11.05
2023-01-02T04:35:41.764Z,10.88
2023-01-02T04:38:10.687Z,14.93
2023-01-02T04:40:38.294Z,12.23
2023-01-02T04:43:08.890Z,13.75
2023-01-02T04:45:36.230Z,15.38
2023-01-02T04:48:03.155Z,14.85
2023-01-02T04:50:30.399Z,13.38
2023-01-02T04:52:57.631Z,12.80
2023-01-02T04:55:24.395Z,13.93
2023-01-02T04:57:51.293Z,12.25
2023-01-02T05:00:18.599Z,12.55
2023-01-02T05:02:46.018Z,10.80
2023-01-02T05:05:13.016Z,11.25
2023-01-02T05:07:40.127Z,11.10
2023-01-02T05:10:07.988Z,9.77
2023-01-02T05:12:36.186Z,10.07
2023-01-02T05:15:04.517Z,10.57
2023-01-02T05:17:39.133Z,12.88
2023-01-02T05:20:08.606Z,13.10
2023-01-02T05:22:53.935Z,10.40
2023-01-02T05:25:20.734Z,11.43
2023-01-02T05:27:47.648Z,10.60
2023-01-02T05:30:14.574Z,11.25
2023-01-02T05:32:41.386Z,11.80
2023-01-02T05:35:09.020Z,12.02
2023-01-02T05:37:35.890Z,10.88
2023-01-02T05:40:03.402Z,11.52
2023-01-02T05:42:30.225Z,11.40
2023-01-02T05:44:57.076Z,11.73
2023-01-02T05:47:24.535Z,11.60
2023-01-02T05:49:51.363Z,10.98
2023-01-02T05:52:18.202Z,12.20
2023-01-02T05:54:45.116Z,11.18
2023-01-02T05:57:12.012Z,10.88
2023-01-02T05:59:38.792Z,11.57
2023-01-02T06:02:05.632Z,11.68
2023-01-02T06:04:32.522Z,13.43
2023-01-02T06:06:59.705Z,12.43
2023-01-02T06:09:26.543Z,12.43
2023-01-02T06:11:53.277Z,12.30
2023-01-02T06:14:22.376Z,13.95
2023-01-02T06:16:49.270Z,15.52
2023-01-02T06:19:16.192Z,15.55
2023-01-02T06:21:43.040Z,16.98
2023-01-02T06:24:09.975Z,15.00
2023-01-02T06:26:37.236Z,11.95
2023-01-02T06:29:04.612Z,10.50
2023-01-02T06:31:33.417Z,9.88
2023-01-02T06:34:02.689Z,9.55
2023-01-02T06:36:31.743Z,10.20
2023-01-02T06:38:59.224Z,12.40
2023-01-02T06:41:26.777Z,12.05
2023-01-02T06:43:53.807Z,13.98
2023-01-02T06:46:22.630Z,14.75
2023-01-02T06:48:50.331Z,13.63
2023-01-02T06:51:20.416Z,16.33
2023-01-02T06:53:47.568Z,15.63
2023-01-02T06:56:17.632Z,14.43
2023-01-02T06:58:44.653Z,13.85
2023-01-02T07:01:17.214Z,17.38
2023-01-02T07:03:44.264Z,19.85
2023-01-02T07:06:14.480Z,22.75
2023-01-02T07:08:43.120Z,18.80
2023-01-02T07:11:14.313Z,22.08
2023-01-02T07:13:43.095Z,17.55
2023-01-02T07:16:12.939Z,18.60
2023-01-02T07:18:40.283Z,17.08
2023-01-02T07:21:08.804Z,18.08
2023-01-02T07:23:36.346Z,15.25
2023-01-02T07:26:05.648Z,17.20
2023-01-02T07:28:33.482Z,14.80
2023-01-02T07:31:02.816Z,15.18
2023-01-02T07:33:31.205Z,13.88
2023-01-02T07:35:59.718Z,11.70
2023-01-02T07:38:27.507Z,13.40
2023-01-02T07:40:54.640Z,13.70
2023-01-02T07:43:21.985Z,11.55
2023-01-02T07:45:50.685Z,9.65
2023-01-02T07:48:18.539Z,12.35
2023-01-02T07:50:45.816Z,11.35
2023-01-02T07:53:12.864Z,13.43
2023-01-02T07:55:39.678Z,11.50
2023-01-02T07:58:06.618Z,11.43
2023-01-02T08:00:33.396Z,11.43
2023-01-02T08:03:01.298Z,10.98
2023-01-02T08:05:28.233Z,11.50
2023-01-02T08:07:55.465Z,11.20
2023-01-02T08:10:23.075Z,10.63
2023-01-02T08:12:50.004Z,10.07
2023-01-02T08:15:17.028Z,9.48
2023-01-02T08:17:44.002Z,8.95
2023-01-02T08:20:11.553Z,9.75
2023-01-02T08:22:38.985Z,10.07
2023-01-02T08:25:06.584Z,10.45
2023-01-02T08:30:10.042Z,12.75
2023-01-02T08:40:37.341Z,15.80
2023-01-02T08:43:08.596Z,16.83
2023-01-02T08:45:36.455Z,18.20
2023-01-02T08:48:21.507Z,15.95
2023-01-02T08:50:50.400Z,16.77
2023-01-02T08:53:18.492Z,19.25
2023-01-02T08:55:46.047Z,18.98
2023-01-02T08:58:13.433Z,17.92
2023-01-02T09:00:44.247Z,18.73
2023-01-02T09:03:11.623Z,18.95
2023-01-02T09:05:38.869Z,18.73
2023-01-02T09:08:06.099Z,15.20
2023-01-02T09:10:36.169Z,13.85
2023-01-02T09:13:06.771Z,13.70
2023-01-02T09:15:34.356Z,14.95
2023-01-02T09:18:01.642Z,15.32
2023-01-02T09:20:34.570Z,12.98
2023-01-02T09:23:01.721Z,11.90
2023-01-02T09:25:28.817Z,12.23
2023-01-02T09:27:55.719Z,12.23
2023-01-02T09:30:24.012Z,10.77
2023-01-02T09:32:51.275Z,10.80
2023-01-02T09:35:18.611Z,11.27
2023-01-02T09:37:48.738Z,11.68
2023-01-02T09:40:21.634Z,10.50
2023-01-02T09:42:51.302Z,10.57
2023-01-02T09:45:18.840Z,10.45
2023-01-02T09:47:47.753Z,9.88
2023-01-02T09:50:28.002Z,10.32
2023-01-02T09:52:58.373Z,9.18
2023-01-02T09:55:45.572Z,7.72
2023-01-02T09:58:24.769Z,8.65
2023-01-02T10:00:52.152Z,8.88
2023-01-02T10:03:38.691Z,7.28
2023-01-02T10:06:09.456Z,7.45
2023-01-02T10:09:07.952Z,6.20
2023-01-02T10:11:41.111Z,6.63
2023-01-02T10:20:08.942Z,6.80
2023-01-02T10:22:49.959Z,6.50
2023-01-02T10:25:24.090Z,5.68
2023-01-02T10:27:56.360Z,6.00
2023-01-02T10:30:26.293Z,4.95
2023-01-02T10:32:57.752Z,5.38
2023-01-02T10:35:34.523Z,4.95
2023-01-02T10:38:02.147Z,5.22
2023-01-02T10:40:30.297Z,5.07
2023-01-02T10:43:00.738Z,4.57
2023-01-02T10:45:28.437Z,4.25
2023-01-02T10:47:55.322Z,5.00
2023-01-02T10:50:29.292Z,4.93
2023-01-02T10:53:08.926Z,5.20
2023-01-02T10:55:43.274Z,4.38
2023-01-02T10:58:26.892Z,4.90
2023-01-02T11:01:22.188Z,3.63
2023-01-02T11:04:11.715Z,4.45
2023-01-02T11:06:57.429Z,3.25
2023-01-02T11:09:29.899Z,4.07
2023-01-02T11:12:12.611Z,3.88
2023-01-02T11:14:46.042Z,3.22
2023-01-02T11:17:21.875Z,3.60
2023-01-02T11:19:52.051Z,2.97
2023-01-02T11:22:32.409Z,2.97
2023-01-02T11:25:03.050Z,2.50
2023-01-02T11:27:35.721Z,2.78
2023-01-02T11:30:05.774Z,2.70
2023-01-02T11:32:41.044Z,2.70
2023-01-02T11:35:37.020Z,2.53
2023-01-02T11:38:03.981Z,3.17
2023-01-02T11:40:32.398Z,11.82
2023-01-02T11:43:25.700Z,7.13
2023-01-02T11:45:53.258Z,8.55
2023-01-02T11:48:23.175Z,7.65
2023-01-02T11:50:51.149Z,5.78
2023-01-02T11:53:29.875Z,13.43
2023-01-02T11:56:05.221Z,10.32
2023-01-02T11:58:39.387Z,7.43
2023-01-02T12:01:18.895Z,7.88
2023-01-02T12:03:46.215Z,6.53
2023-01-02T12:06:19.825Z,7.65
2023-01-02T12:09:05.331Z,5.45
2023-01-02T12:11:54.644Z,5.32
2023-01-02T12:14:54.595Z,10.00
2023-01-02T12:18:03.969Z,10.90
2023-01-02T12:20:57.576Z,7.70
2023-01-02T12:23:55.666Z,12.02
2023-01-02T12:26:32.018Z,9.27
2023-01-02T12:29:46.656Z,6.70
2023-01-02T12:32:38.535Z,8.35
2023-01-02T12:35:20.414Z,12.02
2023-01-02T12:37:55.902Z,12.50
2023-01-02T12:40:31.847Z,13.35
2023-01-02T12:43:37.721Z,13.93
2023-01-02T12:46:11.040Z,13.35
2023-01-02T12:49:19.445Z,13.10
2023-01-02T12:52:00.499Z,13.95
2023-01-02T12:54:55.327Z,13.25
2023-01-02T12:57:46.980Z,11.90
2023-01-02T13:00:19.681Z,12.80
2023-01-02T13:03:22.137Z,11.63
2023-01-02T13:06:02.782Z,14.93
2023-01-02T13:08:37.130Z,19.30
2023-01-02T13:11:06.111Z,18.52
2023-01-02T13:13:37.040Z,14.02
2023-01-02T13:16:24.491Z,14.27
2023-01-02T13:19:34.157Z,14.85
2023-01-02T13:22:35.423Z,12.32
2023-01-02T13:25:03.862Z,12.90
2023-01-02T13:27:31.898Z,10.70
2023-01-02T13:30:02.414Z,11.52
2023-01-02T13:32:31.079Z,12.20
2023-01-02T13:35:01.951Z,13.05
2023-01-02T13:37:30.027Z,14.35
2023-01-02T13:40:02.600Z,16.42
2023-01-02T13:43:02.010Z,19.40
2023-01-02T13:45:37.230Z,14.60
2023-01-02T13:48:13.570Z,12.52
2023-01-02T13:50:40.805Z,13.55
2023-01-02T13:53:31.031Z,11.55
2023-01-02T13:56:16.275Z,11.55
2023-01-02T13:58:45.458Z,12.45
2023-01-02T14:01:21.598Z,11.65
2023-01-02T14:04:13.035Z,12.40
2023-01-02T14:06:50.036Z,10.70
2023-01-02T14:09:22.348Z,9.80
2023-01-02T14:11:57.727Z,11.05
2023-01-02T14:14:54.265Z,13.07
2023-01-02T14:18:03.063Z,12.73
2023-01-02T14:20:38.630Z,18.52
2023-01-02T14:23:23.151Z,21.13
2023-01-02T14:25:50.959Z,16.80
2023-01-02T14:28:27.685Z,14.25
2023-01-02T14:30:56.232Z,9.88
2023-01-02T14:33:36.384Z,14.43
2023-01-02T14:36:12.121Z,16.20
2023-01-02T14:38:52.383Z,15.15
2023-01-02T14:42:09.018Z,14.82
2023-01-02T14:44:43.938Z,12.90
2023-01-02T14:47:21.210Z,12.48
2023-01-02T14:49:59.819Z,13.73
2023-01-02T14:52:40.888Z,14.85
2023-01-02T14:55:19.444Z,18.33
2023-01-02T14:57:52.471Z,21.55
2023-01-02T15:00:33.647Z,27.65
2023-01-02T15:03:37.954Z,28.13
2023-01-02T15:06:17.176Z,21.20
2023-01-02T15:08:49.370Z,22.35
2023-01-02T15:11:45.063Z,22.58
2023-01-02T15:14:23.808Z,23.02
2023-01-02T15:17:13.740Z,21.77
2023-01-02T15:19:42.565Z,24.27
2023-01-02T15:22:11.080Z,28.70
2023-01-02T15:24:46.514Z,24.58
2023-01-02T15:27:31.120Z,24.77
2023-01-02T15:30:00.850Z,31.42
2023-01-02T15:32:33.644Z,31.60
2023-01-02T15:35:13.188Z,31.30
2023-01-02T15:37:44.968Z,25.45
2023-01-02T15:40:16.554Z,33.42
2023-01-02T15:43:02.895Z,22.80
2023-01-02T15:45:32.998Z,15.60
2023-01-02T15:48:00.394Z,15.68
2023-01-02T15:50:29.670Z,15.02
2023-01-02T15:53:05.529Z,14.52
2023-01-02T15:55:39.230Z,14.30
2023-01-02T15:58:25.645Z,17.55
2023-01-02T16:01:18.790Z,15.07
2023-01-02T16:04:00.733Z,15.32
2023-01-02T16:06:39.093Z,17.80
2023-01-02T16:09:16.776Z,26.05
2023-01-02T16:11:52.002Z,36.00
2023-01-02T16:14:26.127Z,26.77
2023-01-02T16:17:04.722Z,38.58
2023-01-02T16:19:35.933Z,50.40
2023-01-02T16:22:20.459Z,37.15
2023-01-02T16:24:53.243Z,42.58
2023-01-02T16:27:29.910Z,52.50
2023-01-02T16:29:57.226Z,56.70
2023-01-02T16:32:28.561Z,48.30
2023-01-02T16:35:03.525Z,49.08
2023-01-02T16:37:39.551Z,71.03
2023-01-02T16:41:00.427Z,55.40
2023-01-02T16:43:12.270Z,60.30
2023-01-02T16:45:39.870Z,103.93
2023-01-02T16:48:12.771Z,124.47
2023-01-02T16:50:43.686Z,116.00
2023-01-02T16:53:19.086Z,127.68
2023-01-02T16:55:46.624Z,102.95
2023-01-02T16:58:13.520Z,77.90
2023-01-02T17:00:43.603Z,84.32
2023-01-02T17:03:17.718Z,79.18
2023-01-02T17:06:01.319Z,97.88
2023-01-02T17:08:32.293Z,87.38
2023-01-02T17:11:00.585Z,87.93
2023-01-02T17:13:28.692Z,60.35
2023-01-02T17:15:56.004Z,65.80
2023-01-02T17:18:23.400Z,62.38
2023-01-02T17:20:50.858Z,58.85
2023-01-02T17:23:19.661Z,62.55
2023-01-02T17:25:47.442Z,74.28
2023-01-02T17:28:15.063Z,102.00
2023-01-02T17:30:43.766Z,118.97
2023-01-02T17:33:12.485Z,83.10
2023-01-02T17:35:39.507Z,98.35
2023-01-02T17:38:06.828Z,94.57
2023-01-02T17:40:34.336Z,63.72
2023-01-02T17:43:01.275Z,93.25
2023-01-02T17:45:28.296Z,95.90
2023-01-02T17:48:02.740Z,125.93
2023-01-02T17:50:42.104Z,115.15
2023-01-02T17:53:09.480Z,114.03
2023-01-02T17:55:36.862Z,107.53
2023-01-02T17:58:04.391Z,133.65
2023-01-02T18:00:31.442Z,128.95
2023-01-02T18:02:58.695Z,111.68
2023-01-02T18:05:25.603Z,86.65
2023-01-02T18:07:52.558Z,70.38
2023-01-02T18:10:20.900Z,88.32
2023-01-02T18:12:49.632Z,92.93
2023-01-02T18:15:18.440Z,87.63
2023-01-02T18:17:45.320Z,70.43
2023-01-02T18:20:20.628Z,81.35
2023-01-02T18:22:50.484Z,51.53
2023-01-02T18:25:30.037Z,55.00
2023-01-02T18:28:15.592Z,108.38
2023-01-02T18:30:44.548Z,132.65
2023-01-02T18:33:17.519Z,135.60
2023-01-02T18:36:00.450Z,121.10
2023-01-02T18:38:36.042Z,103.90
2023-01-02T18:41:36.928Z,95.88
2023-01-02T18:44:22.367Z,106.95
2023-01-02T18:47:04.374Z,113.15
2023-01-02T18:49:40.502Z,106.47
2023-01-02T18:52:27.674Z,95.45
2023-01-02T18:54:59.514Z,70.82
2023-01-02T18:57:34.021Z,117.60
2023-01-02T19:00:14.722Z,62.80
2023-01-02T19:03:01.366Z,127.90
2023-01-02T19:05:34.621Z,118.05
2023-01-02T19:08:13.544Z,130.88
2023-01-02T19:10:46.051Z,98.80
2023-01-02T19:13:25.607Z,99.50
2023-01-02T19:16:19.329Z,130.80
2023-01-02T19:18:54.063Z,155.60
2023-01-02T19:21:26.816Z,89.88
2023-01-02T19:24:04.311Z,74.63
2023-01-02T19:26:40.505Z,79.35
2023-01-02T19:29:10.498Z,120.80
2023-01-02T19:31:52.031Z,108.05
2023-01-02T19:34:38.991Z,117.68
2023-01-02T19:37:11.851Z,133.43
2023-01-02T19:39:51.860Z,163.68
2023-01-02T19:42:20.054Z,167.93
2023-01-02T19:44:46.869Z,151.35
2023-01-02T19:47:14.415Z,145.52
2023-01-02T19:49:41.435Z,145.25
2023-01-02T19:52:12.539Z,143.15
2023-01-02T19:54:40.356Z,126.55
2023-01-02T19:57:08.786Z,117.70
2023-01-02T19:59:43.346Z,99.22
2023-01-02T20:02:13.408Z,123.00
2023-01-02T20:04:43.036Z,89.65
2023-01-02T20:07:10.583Z,91.57
2023-01-02T20:09:37.719Z,95.40
2023-01-02T20:12:23.219Z,109.68
2023-01-02T20:14:50.686Z,89.20
2023-01-02T20:17:17.989Z,118.32
2023-01-02T20:19:45.184Z,135.73
2023-01-02T20:22:12.516Z,121.07
2023-01-02T20:24:39.335Z,131.55
2023-01-02T20:27:06.897Z,115.90
2023-01-02T20:29:33.751Z,131.32
2023-01-02T20:32:00.639Z,157.30
2023-01-02T20:34:27.471Z,152.02
2023-01-02T20:36:54.323Z,140.13
2023-01-02T20:39:21.838Z,153.40
2023-01-02T20:41:48.611Z,129.95
2023-01-02T20:44:15.654Z,104.22
2023-01-02T20:46:42.656Z,97.63
2023-01-02T20:49:12.795Z,93.05
2023-01-02T20:51:40.342Z,81.70
2023-01-02T20:54:07.990Z,78.07
2023-01-02T20:56:35.205Z,107.38
2023-01-02T20:59:02.104Z,92.25
2023-01-02T21:01:29.016Z,98.93
2023-01-02T21:03:56.108Z,86.28
2023-01-02T21:06:23.043Z,90.38
2023-01-02T21:08:50.257Z,78.05
2023-01-02T21:11:17.156Z,73.47
2023-01-02T21:13:43.977Z,88.95
2023-01-02T21:16:11.082Z,79.35
2023-01-02T21:18:39.619Z,66.72
2023-01-02T21:21:15.487Z,61.00
2023-01-02T21:23:42.668Z,67.60
2023-01-02T21:26:11.607Z,65.13
2023-01-02T21:28:38.879Z,48.17
2023-01-02T21:31:06.347Z,53.20
2023-01-02T21:33:34.090Z,81.75
2023-01-02T21:36:02.921Z,104.32
2023-01-02T21:38:30.840Z,96.95
2023-01-02T21:41:21.800Z,89.65
2023-01-02T21:43:49.134Z,93.05
2023-01-02T21:46:16.240Z,63.50
2023-01-02T21:48:43.223Z,59.45
2023-01-02T21:51:10.082Z,41.45
2023-01-02T21:53:37.052Z,42.42
2023-01-02T21:56:04.346Z,43.95
2023-01-02T21:58:33.486Z,43.28
2023-01-02T22:01:00.948Z,47.33
2023-01-02T22:03:28.268Z,43.42
2023-01-02T22:05:55.518Z,48.85
2023-01-02T22:08:22.793Z,46.58
2023-01-02T22:10:49.817Z,29.95
2023-01-02T22:13:16.771Z,39.40
2023-01-02T22:15:45.853Z,32.40
2023-01-02T22:18:12.836Z,34.10
2023-01-02T22:20:39.800Z,36.75
2023-01-02T22:23:06.653Z,39.28
2023-01-02T22:25:33.710Z,47.53
2023-01-02T22:28:01.129Z,63.08
2023-01-02T22:30:34.407Z,81.47
2023-01-02T22:33:02.967Z,91.68
2023-01-02T22:35:29.892Z,56.15
2023-01-02T22:37:59.646Z,77.13
2023-01-02T22:40:27.465Z,65.25
2023-01-02T22:43:03.925Z,71.63
2023-01-02T22:45:41.508Z,72.68
2023-01-02T22:48:19.433Z,73.00
2023-01-02T22:50:48.603Z,73.97
2023-01-02T22:53:19.613Z,62.45
2023-01-02T22:55:47.666Z,53.20
2023-01-02T22:58:14.907Z,49.13
2023-01-02T23:00:41.961Z,52.72
2023-01-02T23:03:16.450Z,47.92
2023-01-02T23:05:43.717Z,41.85
2023-01-02T23:08:10.740Z,39.60
2023-01-02T23:10:38.004Z,42.92
2023-01-02T23:13:05.015Z,39.83
2023-01-02T23:15:31.879Z,30.33
2023-01-02T23:18:17.385Z,25.58
2023-01-02T23:20:44.258Z,27.98
2023-01-02T23:23:11.247Z,26.88
2023-01-02T23:25:43.083Z,26.25
2023-01-02T23:28:20.474Z,22.25
2023-01-02T23:30:57.560Z,22.10
2023-01-02T23:33:24.463Z,20.13
2023-01-02T23:35:52.803Z,20.80
2023-01-02T23:38:20.550Z,18.90
2023-01-02T23:40:47.821Z,20.52
2023-01-02T23:43:14.730Z,16.85
2023-01-02T23:45:41.923Z,13.15
2023-01-02T23:48:08.820Z,13.13
2023-01-02T23:50:35.625Z,11.35
2023-01-02T23:53:02.445Z,12.45
2023-01-02T23:55:30.458Z,13.05
2023-01-02T23:57:57.319Z,18.73
